Thatta, Pakistan
Current Conditions -  °F | °C
As of 1:55 PM on Friday 19 Dec 2014 (Local Time) from OPKC Reporting Station
Haze Haze  
Wind Chill: 75°   Ceiling: 10000
Heat Index: 75°   Visibility: 3mi
Dew Point: 34°   Wind: 9mph
Humidity: 22%   Direction: 50°NE
Pressure: 30.12"   Gusts: NA
Location:  24.75°N, 67.92°E
Report Text: OPKC 190855Z 05008KT 5000 HZ BKN100 24/01 Q1020 NOSIG
Loading
Personal Weather Stations






























Interactive Weather Map New forecast layout! Learn more

10-Day Weather Forecast

Advertisements
Track Severe Weather on mobile